Time;durP1;ratioP1;P1;durP2;ratioP2;P2;SDS_P1;SDS_P2;PMS_P1;PMS_P2;Temp;Humidity;BMP_temperature;BMP_pressure;BME280_temperature;BME280_humidity;BME280_pressure;Samples;Min_cycle;Max_cycle;Signal;HPM_P1;HPM_P2
2021/10/16 00:00:20;;;;;;;15.40;6.35;;;;;;;7.90;61.29;98943.31;4970909;28;20157;-74
2021/10/16 00:02:47;;;;;;;14.65;5.97;;;;;;;7.88;61.14;98949.03;4985635;28;20145;-74
2021/10/16 00:05:14;;;;;;;15.50;6.90;;;;;;;7.91;61.14;98950.38;4988677;28;20415;-74
2021/10/16 00:07:39;;;;;;;13.57;6.13;;;;;;;7.85;61.32;98949.56;4984158;28;20085;-74
2021/10/16 00:10:08;;;;;;;20.13;6.85;;;;;;;7.82;61.39;98933.00;4988574;28;20528;-74
2021/10/16 00:12:34;;;;;;;15.60;7.05;;;;;;;7.85;61.55;98941.41;4987319;28;20089;-74
2021/10/16 00:15:00;;;;;;;14.93;6.55;;;;;;;7.78;61.77;98930.00;4988750;28;20054;-74
2021/10/16 00:17:26;;;;;;;17.85;6.85;;;;;;;7.84;61.87;98944.44;4985412;28;20101;-75
2021/10/16 00:19:52;;;;;;;14.35;6.60;;;;;;;7.85;61.66;98946.06;4987371;28;20054;-74
2021/10/16 00:22:20;;;;;;;14.05;6.05;;;;;;;7.84;61.98;98942.50;4970884;28;20101;-75
2021/10/16 00:24:47;;;;;;;16.88;6.95;;;;;;;7.80;61.69;98923.22;4987034;28;20169;-75
2021/10/16 00:27:14;;;;;;;14.52;6.47;;;;;;;7.86;62.08;98948.47;4986857;28;20070;-74
2021/10/16 00:29:40;;;;;;;;;;;;;;;7.90;61.59;98946.03;4988185;28;20054;-74
2021/10/16 00:32:06;;;;;;;16.83;6.53;;;;;;;7.85;61.69;98935.97;4970608;28;20175;-75
2021/10/16 00:34:33;;;;;;;14.67;6.70;;;;;;;7.86;62.06;98936.78;4983303;28;20109;-75
2021/10/16 00:36:59;;;;;;;13.52;6.20;;;;;;;7.91;61.99;98926.69;4987006;28;20316;-75
2021/10/16 00:39:25;;;;;;;13.90;6.22;;;;;;;7.95;61.77;98935.09;4988979;28;20058;-74
2021/10/16 00:41:51;;;;;;;14.70;6.03;;;;;;;7.94;61.93;98950.63;4987457;28;20419;-74
2021/10/16 00:44:22;;;;;;;19.90;6.70;;;;;;;7.94;62.11;98942.47;4968128;28;20066;-74
2021/10/16 00:46:49;;;;;;;15.82;5.97;;;;;;;7.93;61.93;98934.56;4987625;28;20083;-76
2021/10/16 00:49:15;;;;;;;13.07;5.80;;;;;;;7.91;62.27;98928.59;4983253;28;20054;-75
2021/10/16 00:51:42;;;;;;;14.65;6.40;;;;;;;7.92;62.35;98930.22;4987456;28;20097;-75
2021/10/16 00:54:09;;;;;;;16.08;6.15;;;;;;;7.94;62.08;98928.88;4988724;28;20064;-75
2021/10/16 00:56:37;;;;;;;23.80;6.63;;;;;;;7.94;62.34;98928.88;4991239;28;20054;-77
2021/10/16 00:59:05;;;;;;;16.90;6.57;;;;;;;7.84;62.63;98937.06;4989604;28;20065;-82
2021/10/16 01:01:32;;;;;;;;;;;;;;;7.89;62.55;98930.78;4989922;28;20062;-79
2021/10/16 01:03:59;;;;;;;15.75;6.68;;;;;;;7.89;62.56;98928.88;4989964;28;20306;-78
2021/10/16 01:06:26;;;;;;;;;;;;;;;7.91;62.32;98934.88;4993185;28;20058;-79
2021/10/16 01:08:53;;;;;;;17.70;6.45;;;;;;;7.88;62.51;98935.44;4992530;28;20024;-80
2021/10/16 01:11:27;;;;;;;16.35;6.45;;;;;;;7.79;62.31;98931.63;4988777;28;20058;-83
2021/10/16 01:13:54;;;;;;;15.95;7.18;;;;;;;7.85;62.58;98932.44;4984193;28;20065;-79
2021/10/16 01:16:20;;;;;;;18.77;7.10;;;;;;;7.88;62.49;98935.44;4993702;28;20085;-80
2021/10/16 01:18:48;;;;;;;14.88;6.60;;;;;;;7.70;62.58;98911.53;4993835;28;20055;-80
2021/10/16 01:21:16;;;;;;;16.50;7.13;;;;;;;7.93;62.25;98935.41;4975928;28;20046;-79
2021/10/16 01:23:42;;;;;;;14.07;6.82;;;;;;;7.87;62.75;98927.53;4992421;28;20157;-80
2021/10/16 01:26:08;;;;;;;19.40;6.57;;;;;;;7.87;62.99;98935.69;4987838;28;20739;-80
2021/10/16 01:28:36;;;;;;;16.80;7.15;;;;;;;7.91;62.65;98928.59;4985282;28;20149;-80
2021/10/16 01:31:02;;;;;;;14.02;5.97;;;;;;;7.90;62.67;98924.25;4987045;28;20074;-78
2021/10/16 01:33:30;;;;;;;13.70;6.80;;;;;;;7.91;62.72;98923.97;4989589;28;20086;-79
2021/10/16 01:35:58;;;;;;;15.20;7.18;;;;;;;7.95;62.56;98910.59;4973370;28;20043;-80
2021/10/16 01:38:25;;;;;;;17.40;6.57;;;;;;;7.93;62.26;98910.06;4992701;28;20061;-81
2021/10/16 01:40:52;;;;;;;14.70;6.35;;;;;;;8.01;62.48;98925.00;4986747;28;20058;-81
2021/10/16 01:43:18;;;;;;;15.30;6.13;;;;;;;8.03;62.42;98922.81;4983100;28;20414;-83
2021/10/16 01:45:44;;;;;;;17.45;6.68;;;;;;;7.98;62.63;98920.13;4970118;28;20105;-81
2021/10/16 01:48:10;;;;;;;18.85;6.75;;;;;;;8.05;62.44;98915.22;4974610;28;20050;-82
2021/10/16 01:50:40;;;;;;;16.15;6.50;;;;;;;7.98;62.65;98901.91;4969852;28;20535;-78
2021/10/16 01:53:13;;;;;;;14.43;6.35;;;;;;;7.97;62.46;98911.16;4990593;28;20058;-81
2021/10/16 01:55:47;;;;;;;15.40;6.75;;;;;;;8.01;62.78;98916.84;4991831;28;20066;-78
2021/10/16 01:58:20;;;;;;;14.70;6.05;;;;;;;8.05;62.48;98898.88;4968987;28;20054;-78
2021/10/16 02:01:03;;;;;;;13.80;6.35;;;;;;;8.00;62.78;98898.88;4971915;28;20069;-79
2021/10/16 02:03:29;;;;;;;16.90;6.78;;;;;;;7.91;62.47;98880.44;4991849;28;20466;-82
2021/10/16 02:06:05;;;;;;;15.55;6.53;;;;;;;7.99;62.56;98887.19;4990952;28;20157;-82
2021/10/16 02:08:34;;;;;;;17.30;6.85;;;;;;;8.01;62.71;98890.44;4985728;28;20425;-81
2021/10/16 02:11:02;;;;;;;14.60;6.93;;;;;;;7.84;63.13;98873.66;4973251;28;20713;-80
2021/10/16 02:13:39;;;;;;;17.55;6.70;;;;;;;8.00;62.90;98869.78;4989708;28;20066;-81
2021/10/16 02:16:07;;;;;;;12.65;6.15;;;;;;;8.01;62.89;98879.56;4989079;28;20048;-81
2021/10/16 02:18:52;;;;;;;12.98;6.63;;;;;;;8.00;62.90;98874.38;4988494;28;20046;-82
2021/10/16 02:21:23;;;;;;;13.45;6.13;;;;;;;8.02;63.05;98874.91;4965089;28;20057;-82
2021/10/16 02:23:52;;;;;;;13.18;6.32;;;;;;;7.95;63.03;98876.03;4958415;28;20066;-80
2021/10/16 02:26:21;;;;;;;15.65;6.90;;;;;;;8.03;62.90;98888.25;4989209;28;20446;-82
2021/10/16 02:28:50;;;;;;;13.40;6.22;;;;;;;8.03;62.91;98877.38;4973169;28;20137;-81
2021/10/16 02:31:23;;;;;;;18.40;6.35;;;;;;;7.91;62.95;98858.66;4987323;28;20062;-82
2021/10/16 02:33:51;;;;;;;15.68;6.15;;;;;;;8.05;62.93;98890.72;4975026;28;20065;-81
2021/10/16 02:36:17;;;;;;;20.85;7.70;;;;;;;8.05;63.15;98882.53;4984850;28;20519;-82
2021/10/16 02:38:43;;;;;;;18.02;5.80;;;;;;;8.11;62.84;98888.75;4976308;28;20459;-82
2021/10/16 02:41:09;;;;;;;19.58;6.38;;;;;;;8.11;62.90;98883.31;4982959;28;20117;-81
2021/10/16 02:43:37;;;;;;;16.30;6.40;;;;;;;8.03;62.98;98871.09;4984837;28;20058;-82
2021/10/16 02:46:04;;;;;;;15.23;6.00;;;;;;;8.13;62.85;98876.50;4967533;28;20397;-81
2021/10/16 02:48:30;;;;;;;18.02;6.25;;;;;;;8.15;62.82;98876.22;4988797;28;20056;-82
2021/10/16 02:50:57;;;;;;;17.13;5.70;;;;;;;8.11;62.82;98859.63;4961756;28;20046;-81
2021/10/16 02:53:23;;;;;;;16.75;7.20;;;;;;;8.16;62.96;98875.13;4972211;28;20531;-82
2021/10/16 02:55:57;;;;;;;13.77;6.45;;;;;;;8.15;62.92;98879.75;4981656;28;20054;-81
2021/10/16 02:58:24;;;;;;;15.07;6.27;;;;;;;8.13;62.67;98853.91;4967406;28;20046;-81
2021/10/16 03:00:51;;;;;;;14.55;6.28;;;;;;;8.18;62.81;98895.50;4953733;28;20054;-81
2021/10/16 03:03:17;;;;;;;13.35;6.25;;;;;;;8.08;63.32;98874.59;4987797;28;20470;-80
2021/10/16 03:05:43;;;;;;;15.18;6.65;;;;;;;8.17;62.87;98883.00;4990061;28;20542;-79
2021/10/16 03:08:16;;;;;;;13.57;6.32;;;;;;;8.18;62.96;98875.66;4958718;28;20082;-81
2021/10/16 03:10:43;;;;;;;12.63;6.43;;;;;;;7.95;63.04;98850.72;4980487;28;20085;-79
2021/10/16 03:13:12;;;;;;;17.02;5.90;;;;;;;8.11;63.11;98847.91;4983217;28;20522;-82
2021/10/16 03:15:40;;;;;;;14.35;6.40;;;;;;;8.08;62.89;98841.94;4971779;28;20518;-79
2021/10/16 03:18:08;;;;;;;13.80;6.20;;;;;;;8.21;62.92;98880.53;4970271;28;20096;-80
2021/10/16 03:20:34;;;;;;;;;;;;;;;8.25;62.76;98850.84;4982024;28;20134;-80
2021/10/16 03:23:07;;;;;;;13.50;6.72;;;;;;;8.23;62.79;98853.84;4983393;28;20114;-80
2021/10/16 03:25:35;;;;;;;18.15;6.53;;;;;;;8.17;62.88;98868.59;4990524;28;20058;-79
2021/10/16 03:28:01;;;;;;;15.48;6.35;;;;;;;8.20;62.83;98860.66;4990288;28;20051;-79
2021/10/16 03:30:28;;;;;;;13.48;6.53;;;;;;;8.16;63.07;98869.69;4988283;28;20060;-78
2021/10/16 03:32:54;;;;;;;16.20;6.72;;;;;;;8.17;63.10;98846.81;4983423;28;20566;-78
2021/10/16 03:35:22;;;;;;;12.43;5.88;;;;;;;8.26;62.72;98864.16;4969500;28;20067;-79
2021/10/16 03:37:48;;;;;;;13.57;6.38;;;;;;;8.23;62.79;98865.56;4984813;28;20533;-80
2021/10/16 03:40:13;;;;;;;16.45;7.10;;;;;;;8.26;62.74;98855.97;4990664;28;20145;-79
2021/10/16 03:42:40;;;;;;;13.00;6.10;;;;;;;8.22;62.63;98869.38;4989349;28;20141;-80
2021/10/16 03:45:13;;;;;;;15.60;6.20;;;;;;;8.24;62.81;98871.78;4989568;28;20145;-80
2021/10/16 03:47:40;;;;;;;14.70;5.97;;;;;;;8.21;62.75;98866.91;4971452;28;20511;-81
2021/10/16 03:50:08;;;;;;;13.75;6.32;;;;;;;8.26;62.73;98857.91;4988955;28;20076;-80
2021/10/16 03:52:36;;;;;;;14.40;6.10;;;;;;;8.25;62.61;98859.81;4971435;28;20059;-81
2021/10/16 03:55:04;;;;;;;14.85;6.35;;;;;;;8.25;62.48;98862.53;4986670;28;20066;-80
2021/10/16 03:57:30;;;;;;;14.60;6.23;;;;;;;8.23;62.59;98870.16;4983415;28;20046;-81
2021/10/16 03:59:57;;;;;;;15.10;5.95;;;;;;;8.18;62.50;98868.28;4973106;28;20309;-81
2021/10/16 04:02:25;;;;;;;14.40;6.53;;;;;;;8.25;62.48;98869.91;4970637;28;20055;-80
2021/10/16 04:04:51;;;;;;;17.42;7.30;;;;;;;8.14;62.46;98845.44;4966428;28;20051;-80
2021/10/16 04:07:20;;;;;;;14.48;6.38;;;;;;;8.10;62.46;98844.38;4989716;28;20141;-81
2021/10/16 04:09:52;;;;;;;12.90;6.15;;;;;;;8.18;62.45;98871.00;4972642;28;20046;-80
2021/10/16 04:12:18;;;;;;;15.38;6.57;;;;;;;8.20;62.28;98868.00;4979053;28;20054;-79
2021/10/16 04:14:44;;;;;;;15.48;6.53;;;;;;;8.20;62.28;98863.41;4966468;28;20086;-79
2021/10/16 04:17:14;;;;;;;12.98;5.82;;;;;;;8.21;62.10;98875.09;4971325;28;20077;-80
2021/10/16 04:19:41;;;;;;;14.07;6.32;;;;;;;8.18;62.49;98871.00;4970607;28;20531;-82
2021/10/16 04:22:12;;;;;;;21.08;7.07;;;;;;;8.07;62.16;98850.41;4972385;28;20113;-79
2021/10/16 04:24:38;;;;;;;14.77;5.93;;;;;;;8.18;61.76;98875.66;4983757;28;20046;-79
2021/10/16 04:27:06;;;;;;;14.65;6.38;;;;;;;8.17;62.32;98871.31;4972143;28;20065;-79
2021/10/16 04:29:37;;;;;;;14.30;6.57;;;;;;;8.18;62.10;98865.56;4986539;28;20058;-79
2021/10/16 04:32:08;;;;;;;15.02;6.30;;;;;;;8.11;62.17;98858.81;4991209;28;20164;-79
2021/10/16 04:34:34;;;;;;;16.85;6.40;;;;;;;8.07;62.15;98875.72;5003747;28;20054;-81
2021/10/16 04:37:00;;;;;;;18.25;6.80;;;;;;;8.23;61.96;98856.56;4990922;28;20054;-79
2021/10/16 04:40:07;;;;;;;14.02;6.47;;;;;;;8.19;62.06;98852.78;4998295;23;20141;-79
2021/10/16 04:45:47;;;;;;;13.35;6.43;;;;;;;8.11;62.20;98862.34;4936526;29;20543;-80
2021/10/16 04:48:15;;;;;;;15.68;6.30;;;;;;;8.01;62.08;98838.72;4936950;29;20134;-80
2021/10/16 04:51:41;;;;;;;13.00;6.03;;;;;;;7.52;62.09;98811.22;4937342;29;20070;-79
2021/10/16 04:59:31;;;;;;;;;;;;;;;;;;;;;
2021/10/16 05:03:00;;;;;;;16.08;5.80;;;;;;;7.97;61.96;98823.22;4926711;29;20496;-80
2021/10/16 05:06:38;;;;;;;;;;;;;;;;;;;;;
2021/10/16 05:09:51;;;;;;;14.30;5.85;;;;;;;7.95;62.00;98808.00;4946816;28;20058;-79
2021/10/16 05:12:20;;;;;;;16.50;6.78;;;;;;;8.18;61.88;98842.97;4947431;29;20082;-80
2021/10/16 05:14:55;;;;;;;15.75;6.60;;;;;;;7.55;61.90;98763.59;4946899;28;20524;-80
2021/10/16 05:18:08;;;;;;;13.95;6.10;;;;;;;7.82;61.72;98784.13;4946338;29;20055;-79
2021/10/16 05:20:46;;;;;;;12.57;5.32;;;;;;;7.96;61.80;98789.78;4950140;29;20051;-83
2021/10/16 05:23:12;;;;;;;15.37;5.73;;;;;;;7.50;61.59;98755.47;4935648;29;20535;-83
2021/10/16 05:25:38;;;;;;;14.15;5.80;;;;;;;7.83;61.81;98784.94;4963098;28;20061;-83
2021/10/16 05:28:05;;;;;;;16.67;5.60;;;;;;;8.15;61.87;98833.47;4952522;29;20150;-83
2021/10/16 05:30:34;;;;;;;14.93;5.95;;;;;;;8.16;61.74;98818.75;4953005;28;20092;-83
2021/10/16 05:33:00;;;;;;;13.30;5.85;;;;;;;8.20;61.79;98824.44;4934568;29;20689;-81
2021/10/16 05:35:27;;;;;;;15.88;5.72;;;;;;;8.23;61.67;98834.75;4952779;28;20051;-81
2021/10/16 05:37:54;;;;;;;17.48;6.57;;;;;;;8.26;61.69;98853.25;4935609;29;20126;-82
2021/10/16 05:40:20;;;;;;;13.07;5.30;;;;;;;8.29;61.55;98836.38;4952785;29;20059;-81
2021/10/16 05:42:47;;;;;;;14.80;6.45;;;;;;;8.29;61.55;98830.09;4917208;29;20054;-81
2021/10/16 05:45:13;;;;;;;14.43;6.18;;;;;;;8.25;61.64;98793.66;4934284;29;20043;-83
2021/10/16 05:47:42;;;;;;;15.48;6.00;;;;;;;8.27;61.52;98789.53;4919120;29;20644;-84
2021/10/16 05:50:10;;;;;;;15.25;6.43;;;;;;;8.34;61.34;98816.44;4927976;29;20051;-80
2021/10/16 05:52:38;;;;;;;18.88;6.57;;;;;;;8.38;61.41;98795.72;4930475;29;20516;-80
2021/10/16 05:55:04;;;;;;;;;;;;;;;8.43;61.14;98809.28;4952023;29;20080;-81
2021/10/16 05:57:32;;;;;;;14.10;6.20;;;;;;;8.43;61.14;98843.88;4950472;29;19926;-80
2021/10/16 05:59:59;;;;;;;12.48;5.72;;;;;;;8.45;61.15;98831.63;4935936;29;20063;-82
2021/10/16 06:02:25;;;;;;;15.00;6.40;;;;;;;8.31;60.79;98763.38;4949973;29;20816;-81
2021/10/16 06:04:55;;;;;;;16.80;5.78;;;;;;;8.44;60.86;98805.47;4932990;29;20389;-83
2021/10/16 06:07:21;;;;;;;13.18;5.43;;;;;;;8.43;61.04;98812.03;4953121;28;20535;-73
2021/10/16 06:09:50;;;;;;;13.90;5.95;;;;;;;8.48;60.91;98797.56;4945242;29;20059;-74
2021/10/16 06:12:18;;;;;;;;;;;;;;;8.53;60.82;98813.06;4951372;29;20540;-74
2021/10/16 06:14:44;;;;;;;12.15;5.38;;;;;;;8.54;60.68;98810.03;4952063;28;19933;-74
2021/10/16 06:17:22;;;;;;;15.15;6.20;;;;;;;8.49;60.63;98805.41;4954091;29;20138;-73
2021/10/16 06:19:48;;;;;;;12.05;5.53;;;;;;;8.56;60.55;98786.06;4953363;28;20070;-73
2021/10/16 06:22:14;;;;;;;15.80;5.25;;;;;;;8.59;60.57;98806.47;4952409;29;20051;-73
2021/10/16 06:24:42;;;;;;;14.07;5.80;;;;;;;8.57;60.65;98790.41;4943742;29;20428;-74
2021/10/16 06:27:10;;;;;;;16.48;5.20;;;;;;;8.62;60.60;98823.06;4969609;28;20055;-74
2021/10/16 06:29:36;;;;;;;12.82;5.50;;;;;;;8.64;60.37;98793.63;4956394;28;20051;-74
2021/10/16 06:32:03;;;;;;;17.45;5.38;;;;;;;8.70;60.29;98791.66;4966263;28;20516;-74
2021/10/16 06:34:29;;;;;;;13.30;5.72;;;;;;;8.67;59.86;98794.16;4942506;29;20059;-73
2021/10/16 06:36:55;;;;;;;11.75;5.38;;;;;;;8.72;59.94;98796.81;4924589;29;20070;-74
2021/10/16 06:39:22;;;;;;;12.25;5.55;;;;;;;8.73;59.97;98812.06;4950346;29;20059;-74
2021/10/16 06:41:56;;;;;;;14.43;5.72;;;;;;;8.69;59.65;98790.03;4933118;29;20102;-74
2021/10/16 06:44:43;;;;;;;13.85;5.88;;;;;;;8.79;59.43;98811.72;4949698;29;20416;-74
2021/10/16 06:47:39;;;;;;;16.27;5.90;;;;;;;8.81;59.19;98800.56;4934090;29;20061;-73
2021/10/16 06:50:29;;;;;;;11.90;5.75;;;;;;;8.84;59.47;98789.06;4951574;29;20071;-74
2021/10/16 06:52:56;;;;;;;15.02;5.60;;;;;;;8.87;59.53;98798.59;4934627;29;20051;-76
2021/10/16 06:55:22;;;;;;;14.50;6.00;;;;;;;8.92;59.37;98785.72;4949928;28;20066;-75
2021/10/16 06:57:48;;;;;;;13.90;5.50;;;;;;;8.93;59.29;98811.06;4931608;29;20142;-75
2021/10/16 07:00:28;;;;;;;16.35;5.55;;;;;;;8.96;59.03;98791.41;4933182;29;20142;-75
2021/10/16 07:02:58;;;;;;;14.25;5.85;;;;;;;8.89;58.90;98766.41;4918949;29;20501;-75
2021/10/16 07:05:24;;;;;;;16.67;5.72;;;;;;;9.05;58.91;98783.38;4952622;29;20073;-76
2021/10/16 07:07:53;;;;;;;16.10;5.75;;;;;;;8.97;58.95;98756.78;4950483;29;20059;-76
2021/10/16 07:10:20;;;;;;;14.02;5.45;;;;;;;9.12;58.64;98799.41;4913902;29;20079;-77
2021/10/16 07:12:46;;;;;;;14.63;5.30;;;;;;;9.10;58.29;98782.53;4951231;28;20102;-77
2021/10/16 07:15:12;;;;;;;17.40;6.05;;;;;;;9.14;57.90;98781.66;4952044;28;20063;-75
2021/10/16 07:17:40;;;;;;;19.77;5.72;;;;;;;9.20;57.90;98787.88;4950446;29;20052;-75
2021/10/16 07:20:09;;;;;;;14.90;5.85;;;;;;;9.30;57.74;98797.84;4948747;28;20488;-85
2021/10/16 07:22:40;;;;;;;15.27;5.65;;;;;;;9.21;57.53;98809.41;4946355;29;20055;-85
2021/10/16 07:34:03;;;;;;;11.77;5.27;;;;;;;9.27;57.00;98785.59;4903494;28;20069;-88
2021/10/16 07:36:38;;;;;;;13.85;5.68;;;;;;;9.21;56.43;98771.25;4969486;28;20101;-82
2021/10/16 07:39:08;;;;;;;13.68;5.93;;;;;;;8.80;56.63;98695.34;4966710;28;20150;-84
2021/10/16 07:41:36;;;;;;;21.15;5.85;;;;;;;9.26;56.47;98766.81;4969634;28;20105;-84
2021/10/16 07:44:08;;;;;;;15.32;5.35;;;;;;;9.43;56.21;98802.59;4969326;28;20423;-84
2021/10/16 07:46:34;;;;;;;17.73;5.68;;;;;;;9.33;56.12;98787.19;4969414;28;20070;-85
2021/10/16 07:49:00;;;;;;;14.23;5.85;;;;;;;9.34;55.84;98782.53;4970869;28;20062;-84
2021/10/16 07:51:29;;;;;;;16.08;5.20;;;;;;;8.89;55.29;98703.69;4938600;28;20058;-82
2021/10/16 07:54:01;;;;;;;12.98;5.45;;;;;;;8.84;55.39;98696.38;4956027;28;20051;-83
2021/10/16 07:57:07;;;;;;;16.75;6.10;;;;;;;8.67;54.97;98696.03;4969406;28;20053;-81
2021/10/16 08:00:03;;;;;;;14.98;6.07;;;;;;;9.35;55.04;98774.06;4916128;29;20073;-90
2021/10/16 08:02:39;;;;;;;15.13;6.10;;;;;;;9.31;55.13;98781.22;4968877;28;20082;-77
2021/10/16 08:05:08;;;;;;;19.90;5.70;;;;;;;9.36;55.11;98777.59;4964143;28;20042;-76
2021/10/16 08:11:37;;;;;;;;;;;;;;;;;;;;;
2021/10/16 08:14:51;;;;;;;13.52;5.30;;;;;;;9.15;54.43;98739.66;4954866;28;20145;-76
2021/10/16 08:17:22;;;;;;;15.45;5.50;;;;;;;9.24;54.46;98749.94;4952441;28;20062;-77
2021/10/16 08:19:57;;;;;;;18.13;5.50;;;;;;;9.42;54.39;98762.78;4951531;28;20062;-76
2021/10/16 08:22:45;;;;;;;15.65;5.85;;;;;;;9.46;54.10;98765.75;4939256;28;20194;-76
2021/10/16 08:26:09;;;;;;;12.63;5.20;;;;;;;9.45;53.98;98794.94;4964073;28;20515;-76
2021/10/16 08:28:57;;;;;;;15.30;5.43;;;;;;;9.46;53.83;98787.59;4940330;28;20584;-76
2021/10/16 08:32:07;;;;;;;15.20;6.05;;;;;;;9.51;53.81;98769.19;4938025;28;20059;-76
2021/10/16 08:35:17;;;;;;;12.23;4.85;;;;;;;9.16;53.78;98722.19;4968856;28;20114;-76
2021/10/16 08:38:07;;;;;;;13.63;6.15;;;;;;;8.96;53.78;98689.72;4934018;28;20078;-78
2021/10/16 08:41:42;;;;;;;14.80;5.55;;;;;;;9.63;54.04;98798.00;4955309;28;20102;-78
2021/10/16 08:45:03;;;;;;;12.80;5.82;;;;;;;9.44;53.29;98768.75;4947447;28;20054;-79
2021/10/16 08:51:13;;;;;;;11.52;5.22;;;;;;;9.73;53.46;98786.13;4958747;28;20440;-77
2021/10/16 08:54:03;;;;;;;16.05;5.25;;;;;;;9.78;53.09;98784.13;4981142;28;20051;-79
2021/10/16 08:56:32;;;;;;;13.38;5.22;;;;;;;9.14;53.03;98705.31;4970282;28;20102;-78
2021/10/16 09:06:43;;;;;;;20.33;5.93;;;;;;;9.93;52.55;98823.25;4963371;28;20061;-77
2021/10/16 09:10:42;;;;;;;13.27;5.85;;;;;;;9.28;52.17;98707.31;4912190;29;20541;-77
2021/10/16 09:13:54;;;;;;;14.90;5.45;;;;;;;9.79;52.14;98754.94;4887231;28;20459;-76
2021/10/16 09:17:22;;;;;;;16.05;6.15;;;;;;;10.04;51.25;98805.63;4949889;28;20106;-76
2021/10/16 09:21:22;;;;;;;13.10;5.82;;;;;;;9.43;50.63;98681.72;4939216;29;20594;-79
2021/10/16 09:30:57;;;;;;;13.65;5.90;;;;;;;9.60;49.76;98700.34;4921969;29;20138;-87
2021/10/16 09:33:25;;;;;;;16.25;6.10;;;;;;;9.56;49.83;98685.66;4962308;28;20078;-88
2021/10/16 09:35:51;;;;;;;13.48;5.95;;;;;;;9.72;49.34;98711.63;4954482;29;20073;-90
2021/10/16 09:38:18;;;;;;;13.68;5.28;;;;;;;10.04;49.41;98733.78;4955920;29;20051;-88
2021/10/16 09:40:44;;;;;;;12.38;5.32;;;;;;;10.12;49.18;98801.41;4960594;28;20102;-87
2021/10/16 09:43:18;;;;;;;15.75;5.55;;;;;;;10.27;49.13;98755.84;4976940;28;20084;-86
2021/10/16 09:45:44;;;;;;;14.18;5.07;;;;;;;10.22;48.87;98816.84;4966732;28;20055;-85
2021/10/16 09:48:29;;;;;;;13.27;5.33;;;;;;;10.16;48.27;98788.00;4973681;28;20055;-85
2021/10/16 09:50:59;;;;;;;13.85;5.35;;;;;;;10.19;48.29;98780.00;4956762;28;20299;-85
2021/10/16 09:53:25;;;;;;;15.88;5.18;;;;;;;10.23;48.04;98768.50;4972237;28;20092;-86
2021/10/16 09:55:53;;;;;;;15.73;6.00;;;;;;;10.29;47.83;98724.38;4960485;28;20063;-88
2021/10/16 09:58:22;;;;;;;15.27;5.80;;;;;;;10.29;47.94;98759.09;4946760;28;20084;-86
2021/10/16 10:00:48;;;;;;;12.82;5.88;;;;;;;10.28;47.45;98754.75;4965161;28;20078;-86
2021/10/16 10:03:19;;;;;;;12.43;5.63;;;;;;;10.28;48.02;98793.78;4966277;28;20073;-86
2021/10/16 10:05:46;;;;;;;19.13;6.07;;;;;;;10.33;47.85;98781.97;4946416;28;20085;-87
2021/10/16 10:08:13;;;;;;;15.07;5.72;;;;;;;10.34;48.02;98762.56;4967814;28;20050;-87
2021/10/16 10:10:42;;;;;;;14.52;5.68;;;;;;;10.27;47.53;98723.88;4965982;28;20065;-86
2021/10/16 10:13:08;;;;;;;15.07;5.97;;;;;;;10.38;47.35;98759.22;4957301;28;20059;-86
2021/10/16 10:15:34;;;;;;;14.55;5.40;;;;;;;10.24;47.42;98734.59;4951709;28;20050;-85
2021/10/16 10:18:46;;;;;;;14.03;5.27;;;;;;;10.21;47.53;98728.59;4972829;28;20423;-85
2021/10/16 10:20:50;;;;;;;;;;;;;;;10.40;47.38;98801.53;4950417;29;20117;-86
2021/10/16 10:23:20;;;;;;;16.65;5.90;;;;;;;10.38;47.88;98742.81;4964452;28;19930;-86
2021/10/16 10:25:46;;;;;;;17.42;5.70;;;;;;;10.34;47.73;98727.03;4966903;28;20055;-86
2021/10/16 10:28:12;;;;;;;16.38;6.65;;;;;;;10.39;47.94;98761.66;4973498;28;20063;-86
2021/10/16 10:30:45;;;;;;;13.57;5.75;;;;;;;10.34;47.55;98716.09;4958075;28;20063;-86
2021/10/16 10:33:20;;;;;;;16.92;5.50;;;;;;;10.41;47.75;98726.69;4962521;28;20512;-85
2021/10/16 10:36:19;;;;;;;12.65;5.50;;;;;;;10.39;47.36;98761.66;4939027;28;20062;-89
2021/10/16 10:38:47;;;;;;;14.07;5.75;;;;;;;10.30;47.45;98745.16;4968990;28;20050;-89
2021/10/16 10:41:31;;;;;;;17.60;5.88;;;;;;;10.42;47.25;98749.34;4960447;28;20094;-85
2021/10/16 10:44:15;;;;;;;14.63;6.30;;;;;;;9.93;47.89;98662.97;4956809;28;20058;-85
2021/10/16 10:47:42;;;;;;;16.52;5.50;;;;;;;9.86;46.64;98659.81;4980660;28;20094;-87
2021/10/16 10:50:10;;;;;;;15.68;5.78;;;;;;;9.98;46.90;98651.13;4959159;28;20061;-86
2021/10/16 10:53:06;;;;;;;14.13;5.47;;;;;;;9.89;47.17;98658.41;4984046;28;20054;-86
2021/10/16 10:55:48;;;;;;;14.02;5.85;;;;;;;10.19;46.83;98681.66;4961858;28;20059;-86
2021/10/16 10:58:21;;;;;;;15.70;6.40;;;;;;;10.38;46.72;98685.44;4935731;29;20639;-86
2021/10/16 11:00:52;;;;;;;14.15;6.15;;;;;;;9.98;46.29;98729.53;4934498;29;20054;-86
2021/10/16 11:03:48;;;;;;;16.77;6.07;;;;;;;10.55;46.68;98778.63;4939536;28;20063;-87
2021/10/16 11:06:20;;;;;;;16.83;6.32;;;;;;;10.15;46.17;98702.47;4957506;28;20097;-84
2021/10/16 11:08:49;;;;;;;15.88;6.78;;;;;;;10.48;46.53;98716.16;4972748;28;20046;-86
2021/10/16 11:11:44;;;;;;;13.65;5.57;;;;;;;10.12;46.45;98678.50;4972234;28;20078;-86
2021/10/16 11:14:16;;;;;;;16.33;6.10;;;;;;;10.47;46.54;98714.53;4957829;28;20055;-86
2021/10/16 11:16:52;;;;;;;16.88;5.82;;;;;;;10.02;46.71;98660.38;4953757;28;20080;-87
2021/10/16 11:19:19;;;;;;;15.50;6.15;;;;;;;9.97;46.63;98629.59;4946517;28;20051;-87
2021/10/16 11:21:51;;;;;;;15.27;5.93;;;;;;;10.64;46.75;98752.25;4952517;28;20063;-87
2021/10/16 11:24:31;;;;;;;13.82;6.00;;;;;;;10.01;46.60;98650.56;4939731;28;20082;-89
2021/10/16 11:27:07;;;;;;;19.30;6.10;;;;;;;10.11;46.68;98633.19;4955819;28;20570;-85
2021/10/16 11:29:41;;;;;;;16.67;6.85;;;;;;;10.41;46.53;98687.59;4979894;28;20443;-86
2021/10/16 11:32:25;;;;;;;15.65;6.28;;;;;;;10.10;46.66;98653.41;4939285;28;20078;-87
2021/10/16 11:34:58;;;;;;;14.18;6.45;;;;;;;10.00;46.96;98613.44;4956934;28;20055;-87
2021/10/16 11:37:39;;;;;;;23.85;6.82;;;;;;;10.41;46.60;98682.13;4971540;28;20088;-87
2021/10/16 11:40:08;;;;;;;16.15;6.03;;;;;;;10.42;46.75;98675.56;4971152;28;20059;-86
2021/10/16 11:42:43;;;;;;;17.52;6.90;;;;;;;10.61;46.60;98720.03;4946938;28;20451;-87
2021/10/16 11:45:12;;;;;;;17.10;6.65;;;;;;;10.31;46.70;98639.38;4949190;28;20050;-88
2021/10/16 11:47:39;;;;;;;20.17;6.40;;;;;;;10.69;46.62;98742.31;4956870;28;20082;-87
2021/10/16 11:50:10;;;;;;;20.80;6.47;;;;;;;10.36;46.24;98686.56;4969449;28;20047;-87
2021/10/16 11:52:37;;;;;;;16.25;6.03;;;;;;;10.25;46.72;98632.41;4954080;28;20055;-88
2021/10/16 11:55:11;;;;;;;14.43;6.00;;;;;;;10.61;46.65;98706.38;4958447;28;20069;-88
2021/10/16 11:57:42;;;;;;;13.45;5.75;;;;;;;10.63;46.45;98700.59;4974809;28;20081;-87
2021/10/16 12:00:24;;;;;;;16.85;6.47;;;;;;;10.64;46.59;98681.16;4939008;29;20075;-88
2021/10/16 12:02:54;;;;;;;13.55;6.05;;;;;;;10.66;46.19;98682.78;4955085;29;20062;-88
2021/10/16 12:05:23;;;;;;;14.25;6.35;;;;;;;10.67;46.12;98665.28;4978952;28;20479;-88
2021/10/16 12:07:51;;;;;;;19.23;6.28;;;;;;;10.94;46.12;98683.59;4973362;28;20117;-88
2021/10/16 12:10:28;;;;;;;15.70;6.18;;;;;;;10.46;46.22;98662.94;4964731;28;20079;-87
2021/10/16 12:13:01;;;;;;;16.15;5.68;;;;;;;10.90;46.24;98688.06;4936302;29;20070;-87
2021/10/16 12:15:38;;;;;;;14.13;6.20;;;;;;;10.89;45.51;98705.59;4954508;28;20114;-87
2021/10/16 12:18:04;;;;;;;16.20;6.43;;;;;;;10.86;45.84;98687.84;4972369;28;20202;-86
2021/10/16 12:20:42;;;;;;;19.02;6.35;;;;;;;10.98;45.96;98713.88;4977809;28;20054;-86
2021/10/16 12:23:08;;;;;;;18.90;6.35;;;;;;;10.97;46.31;98718.53;4987097;28;20416;-87
2021/10/16 12:25:42;;;;;;;20.08;6.32;;;;;;;10.82;45.84;98716.91;4972523;28;20051;-88
2021/10/16 12:28:10;;;;;;;16.33;6.03;;;;;;;11.00;45.81;98706.19;4990813;28;20487;-90
2021/10/16 12:30:39;;;;;;;19.15;6.45;;;;;;;11.05;46.12;98717.00;4950313;28;20126;-86
2021/10/16 12:33:10;;;;;;;22.23;6.88;;;;;;;11.07;45.89;98715.59;4961403;28;20425;-89
2021/10/16 12:35:36;;;;;;;22.08;6.05;;;;;;;10.92;45.90;98733.09;4954095;28;20058;-86
2021/10/16 12:38:10;;;;;;;15.70;6.30;;;;;;;10.86;45.48;98676.91;4954982;28;20543;-86
2021/10/16 12:40:47;;;;;;;13.30;5.38;;;;;;;10.67;45.36;98662.53;4940969;29;20055;-86
2021/10/16 12:43:24;;;;;;;14.75;5.78;;;;;;;10.84;45.28;98681.88;4952788;28;20059;-85
2021/10/16 12:45:55;;;;;;;17.25;5.93;;;;;;;10.83;45.17;98704.03;4958953;28;20055;-85